createdAt,value
2019-05-29T00:00:37.602Z,11.60
2019-05-29T00:03:06.295Z,11.60
2019-05-29T00:05:33.938Z,11.50
2019-05-29T00:08:01.383Z,11.40
2019-05-29T00:10:28.928Z,11.40
2019-05-29T00:13:00.727Z,11.40
2019-05-29T00:15:28.314Z,11.30
2019-05-29T00:17:55.856Z,11.30
2019-05-29T00:20:23.293Z,11.30
2019-05-29T00:22:51.589Z,11.20
2019-05-29T00:25:19.051Z,11.20
2019-05-29T00:27:46.492Z,11.10
2019-05-29T00:30:15.005Z,11.10
2019-05-29T00:32:42.730Z,11.10
2019-05-29T00:35:10.343Z,11.00
2019-05-29T00:37:38.127Z,10.90
2019-05-29T00:40:06.729Z,10.90
2019-05-29T00:42:34.397Z,10.90
2019-05-29T00:45:01.940Z,10.80
2019-05-29T00:47:29.374Z,10.80
2019-05-29T00:49:56.865Z,10.80
2019-05-29T00:52:24.305Z,10.80
2019-05-29T00:54:51.793Z,10.80
2019-05-29T00:57:19.225Z,10.70
2019-05-29T00:59:46.677Z,10.70
2019-05-29T01:02:15.741Z,10.80
2019-05-29T01:04:43.401Z,10.80
2019-05-29T01:07:12.178Z,10.70
2019-05-29T01:09:40.011Z,10.70
2019-05-29T01:12:07.704Z,10.70
2019-05-29T01:14:49.154Z,10.80
2019-05-29T01:17:04.679Z,10.80
2019-05-29T01:19:32.204Z,10.80
2019-05-29T01:21:59.639Z,10.90
2019-05-29T01:24:27.221Z,10.80
2019-05-29T01:26:54.802Z,10.80
2019-05-29T01:29:23.413Z,10.80
2019-05-29T01:31:51.252Z,10.80
2019-05-29T01:34:19.709Z,10.70
2019-05-29T01:36:48.515Z,10.70
2019-05-29T01:39:17.035Z,10.70
2019-05-29T01:41:45.045Z,10.70
2019-05-29T01:44:12.726Z,10.70
2019-05-29T01:46:40.162Z,10.70
2019-05-29T01:49:07.674Z,10.70
2019-05-29T01:51:35.234Z,10.60
2019-05-29T01:54:02.748Z,10.60
2019-05-29T01:56:30.235Z,10.60
2019-05-29T01:58:57.694Z,10.60
2019-05-29T02:01:25.148Z,10.60
2019-05-29T02:03:52.719Z,10.70
2019-05-29T02:06:20.526Z,10.70
2019-05-29T02:08:47.941Z,10.80
2019-05-29T02:11:15.400Z,10.80
2019-05-29T02:13:42.960Z,10.80
2019-05-29T02:16:10.515Z,10.90
2019-05-29T02:18:37.953Z,10.90
2019-05-29T02:21:05.486Z,10.90
2019-05-29T02:23:32.969Z,11.00
2019-05-29T02:26:00.456Z,11.00
2019-05-29T02:28:28.355Z,11.00
2019-05-29T02:30:55.887Z,11.00
2019-05-29T02:33:26.149Z,11.00
2019-05-29T02:35:55.501Z,11.10
2019-05-29T02:38:24.921Z,11.10
2019-05-29T02:40:52.374Z,11.10
2019-05-29T02:43:21.339Z,11.10
2019-05-29T02:45:54.412Z,11.10
2019-05-29T02:48:18.692Z,11.10
2019-05-29T02:50:46.152Z,11.10
2019-05-29T02:53:13.609Z,11.10
2019-05-29T02:55:41.041Z,11.10
2019-05-29T02:58:08.507Z,11.10
2019-05-29T03:01:04.796Z,11.10
2019-05-29T03:03:38.764Z,11.10
2019-05-29T03:06:01.721Z,11.10
2019-05-29T03:08:32.528Z,11.10
2019-05-29T03:10:59.573Z,11.10
2019-05-29T03:13:27.671Z,11.10
2019-05-29T03:16:09.503Z,11.10
2019-05-29T03:18:25.871Z,11.10
2019-05-29T03:20:53.577Z,11.10
2019-05-29T03:23:21.187Z,11.10
2019-05-29T03:25:48.646Z,11.00
2019-05-29T03:28:17.219Z,10.90
2019-05-29T03:30:46.107Z,10.90
2019-05-29T03:33:14.035Z,10.80
2019-05-29T03:35:47.725Z,10.80
2019-05-29T03:38:11.155Z,10.80
2019-05-29T03:40:38.830Z,10.90
2019-05-29T03:43:06.486Z,10.90
2019-05-29T03:45:35.876Z,10.90
2019-05-29T03:48:04.588Z,10.90
2019-05-29T03:50:33.314Z,10.90
2019-05-29T03:53:01.704Z,10.90
2019-05-29T03:55:29.459Z,10.90
2019-05-29T03:57:57.289Z,11.00
2019-05-29T04:00:29.967Z,11.00
2019-05-29T04:02:56.964Z,11.00
2019-05-29T04:05:48.413Z,11.10
2019-05-29T04:08:18.525Z,11.10
2019-05-29T04:10:46.233Z,11.20
2019-05-29T04:13:13.864Z,11.30
2019-05-29T04:15:42.728Z,11.40
2019-05-29T04:18:10.258Z,11.40
2019-05-29T04:20:38.750Z,11.50
2019-05-29T04:23:07.255Z,11.60
2019-05-29T04:25:39.731Z,11.70
2019-05-29T04:28:07.646Z,11.80
2019-05-29T04:30:36.608Z,11.90
2019-05-29T04:33:05.461Z,12.00
2019-05-29T04:35:34.632Z,12.10
2019-05-29T04:38:02.293Z,12.30
2019-05-29T04:40:30.572Z,12.40
2019-05-29T04:42:58.247Z,12.50
2019-05-29T04:45:25.788Z,12.60
2019-05-29T04:47:53.327Z,12.70
2019-05-29T04:50:21.029Z,12.80
2019-05-29T04:52:48.588Z,12.90
2019-05-29T04:55:16.059Z,13.00
2019-05-29T04:57:43.516Z,13.00
2019-05-29T05:00:11.049Z,13.00
2019-05-29T05:02:39.427Z,13.10
2019-05-29T05:05:08.791Z,13.20
2019-05-29T05:07:37.458Z,13.20
2019-05-29T05:10:05.412Z,13.20
2019-05-29T05:12:33.634Z,13.10
2019-05-29T05:15:01.815Z,13.10
2019-05-29T05:17:29.703Z,13.10
2019-05-29T05:19:57.238Z,13.10
2019-05-29T05:22:24.825Z,13.00
2019-05-29T05:24:52.379Z,12.90
2019-05-29T05:27:19.841Z,12.90
2019-05-29T05:29:47.327Z,13.00
2019-05-29T05:32:14.906Z,13.00
2019-05-29T05:34:42.427Z,13.00
2019-05-29T05:37:10.079Z,13.10
2019-05-29T05:39:37.498Z,13.20
2019-05-29T05:42:05.057Z,13.30
2019-05-29T05:44:32.851Z,13.40
2019-05-29T05:47:00.395Z,13.40
2019-05-29T05:49:27.845Z,13.40
2019-05-29T05:51:55.331Z,13.50
2019-05-29T05:54:22.889Z,13.50
2019-05-29T05:56:53.421Z,13.60
2019-05-29T05:59:19.716Z,13.60
2019-05-29T06:01:47.271Z,13.60
2019-05-29T06:04:14.704Z,13.70
2019-05-29T06:06:42.684Z,13.90
2019-05-29T06:09:10.110Z,13.90
2019-05-29T06:11:38.334Z,14.00
2019-05-29T06:14:06.011Z,14.00
2019-05-29T06:16:34.468Z,14.00
2019-05-29T06:19:02.171Z,14.10
2019-05-29T06:21:29.733Z,14.20
2019-05-29T06:23:57.163Z,14.30
2019-05-29T06:26:24.682Z,14.30
2019-05-29T06:28:52.151Z,14.40
2019-05-29T06:31:20.734Z,14.40
2019-05-29T06:33:48.284Z,14.40
2019-05-29T06:36:15.750Z,14.50
2019-05-29T06:38:44.353Z,14.50
2019-05-29T06:41:12.162Z,14.60
2019-05-29T06:43:39.905Z,14.70
2019-05-29T06:46:07.481Z,14.90
2019-05-29T06:48:53.585Z,15.00
2019-05-29T06:51:04.617Z,15.10
2019-05-29T06:53:32.285Z,15.30
2019-05-29T06:56:01.405Z,15.40
2019-05-29T06:58:29.277Z,15.60
2019-05-29T07:00:56.822Z,15.60
2019-05-29T07:03:25.058Z,15.70
2019-05-29T07:05:53.066Z,15.80
2019-05-29T07:08:35.187Z,15.80
2019-05-29T07:10:50.053Z,15.90
2019-05-29T07:13:17.480Z,15.90
2019-05-29T07:15:45.833Z,16.00
2019-05-29T07:18:14.382Z,16.00
2019-05-29T07:20:42.698Z,16.10
2019-05-29T07:23:10.429Z,16.10
2019-05-29T07:25:38.778Z,16.20
2019-05-29T07:28:06.350Z,16.10
2019-05-29T07:30:34.020Z,16.10
2019-05-29T07:33:01.586Z,16.10
2019-05-29T07:35:29.168Z,16.20
2019-05-29T07:37:56.769Z,16.30
2019-05-29T07:43:30.485Z,16.50
2019-05-29T07:45:57.998Z,16.50
2019-05-29T07:48:25.591Z,16.50
2019-05-29T07:52:14.685Z,16.50
2019-05-29T07:53:22.687Z,16.60
2019-05-29T07:55:50.215Z,16.60
2019-05-29T07:58:17.713Z,16.60
2019-05-29T08:01:06.898Z,16.60
2019-05-29T08:03:14.884Z,16.50
2019-05-29T08:05:46.217Z,16.40
2019-05-29T08:08:12.011Z,16.50
2019-05-29T08:10:39.982Z,16.70
2019-05-29T08:13:08.033Z,16.70
2019-05-29T08:15:49.155Z,17.00
2019-05-29T08:18:05.156Z,17.20
2019-05-29T08:20:32.824Z,17.40
2019-05-29T08:23:00.349Z,17.70
2019-05-29T08:25:27.855Z,17.90
2019-05-29T08:27:55.501Z,17.90
2019-05-29T08:30:22.964Z,17.90
2019-05-29T08:32:51.258Z,18.10
2019-05-29T08:35:19.048Z,18.20
2019-05-29T08:37:47.009Z,18.30
2019-05-29T08:40:16.632Z,18.30
2019-05-29T08:42:45.158Z,18.30
2019-05-29T08:45:13.066Z,18.20
2019-05-29T08:47:41.488Z,18.00
2019-05-29T08:50:19.332Z,17.90
2019-05-29T08:52:41.694Z,17.90
2019-05-29T08:55:09.760Z,17.80
2019-05-29T08:57:37.494Z,17.80
2019-05-29T09:00:06.420Z,17.70
2019-05-29T09:02:34.132Z,17.60
2019-05-29T09:05:01.995Z,17.50
2019-05-29T09:07:30.149Z,17.40
2019-05-29T09:09:57.699Z,17.30
2019-05-29T09:12:25.465Z,17.10
2019-05-29T09:14:52.977Z,17.00
2019-05-29T09:17:25.091Z,16.90
2019-05-29T09:19:52.751Z,16.80
2019-05-29T09:22:20.988Z,16.60
2019-05-29T09:24:48.767Z,16.40
2019-05-29T09:27:17.063Z,16.10
2019-05-29T09:29:44.996Z,15.90
2019-05-29T09:32:13.673Z,16.00
2019-05-29T09:34:42.136Z,16.10
2019-05-29T09:37:09.633Z,16.20
2019-05-29T09:39:37.146Z,16.50
2019-05-29T09:42:04.655Z,16.60
2019-05-29T09:44:38.962Z,16.80
2019-05-29T09:47:01.582Z,17.10
2019-05-29T09:49:30.607Z,17.30
2019-05-29T09:51:58.121Z,17.60
2019-05-29T09:54:25.895Z,17.90
2019-05-29T09:56:54.753Z,18.20
2019-05-29T09:59:23.113Z,18.50
2019-05-29T10:01:50.647Z,18.70
2019-05-29T10:04:18.250Z,18.80
2019-05-29T10:06:45.838Z,18.80
2019-05-29T10:09:13.433Z,18.60
2019-05-29T10:11:40.882Z,18.40
2019-05-29T10:14:08.374Z,18.40
2019-05-29T10:16:35.845Z,18.20
2019-05-29T10:19:04.851Z,18.10
2019-05-29T10:21:39.892Z,17.90
2019-05-29T10:24:03.981Z,17.70
2019-05-29T10:26:31.741Z,17.50
2019-05-29T10:29:08.028Z,17.40
2019-05-29T10:31:28.788Z,17.40
2019-05-29T10:33:56.283Z,17.40
2019-05-29T10:36:24.104Z,17.40
2019-05-29T10:38:52.695Z,17.60
2019-05-29T10:41:20.335Z,17.80
2019-05-29T10:43:49.079Z,18.00
2019-05-29T10:46:17.235Z,18.20
2019-05-29T10:48:48.688Z,18.40
2019-05-29T10:51:14.506Z,18.60
2019-05-29T10:53:42.206Z,18.80
2019-05-29T10:56:10.341Z,19.10
2019-05-29T10:58:48.439Z,19.20
2019-05-29T11:01:07.831Z,19.50
2019-05-29T11:03:36.732Z,19.80
2019-05-29T11:06:05.106Z,20.30
2019-05-29T11:08:34.403Z,20.80
2019-05-29T11:11:01.898Z,21.30
2019-05-29T11:13:29.387Z,21.70
2019-05-29T11:15:57.107Z,22.00
2019-05-29T11:18:24.788Z,22.00
2019-05-29T11:20:53.419Z,22.10
2019-05-29T11:23:21.626Z,22.40
2019-05-29T11:25:49.931Z,22.80
2019-05-29T11:28:17.498Z,23.20
2019-05-29T11:30:45.237Z,23.30
2019-05-29T11:33:14.053Z,23.30
2019-05-29T11:35:57.177Z,23.50
2019-05-29T11:38:11.292Z,23.80
2019-05-29T11:40:39.630Z,24.10
2019-05-29T11:43:07.298Z,24.20
2019-05-29T11:45:35.812Z,23.80
2019-05-29T11:48:05.317Z,23.30
2019-05-29T11:50:33.460Z,22.70
2019-05-29T11:53:02.826Z,22.00
2019-05-29T11:55:31.020Z,21.30
2019-05-29T11:57:59.994Z,20.60
2019-05-29T12:00:29.916Z,20.10
2019-05-29T12:02:57.860Z,19.70
2019-05-29T12:05:25.661Z,19.40
2019-05-29T12:07:53.636Z,19.10
2019-05-29T12:10:22.099Z,18.70
2019-05-29T12:12:49.680Z,18.70
2019-05-29T12:15:18.810Z,18.70
2019-05-29T12:17:46.540Z,18.80
2019-05-29T12:20:31.924Z,18.90
2019-05-29T12:23:11.319Z,19.00
2019-05-29T12:25:15.583Z,19.40
2019-05-29T12:27:43.421Z,19.80
2019-05-29T12:30:11.901Z,20.20
2019-05-29T12:32:39.366Z,20.60
2019-05-29T12:35:07.920Z,21.00
2019-05-29T12:37:35.539Z,21.50
2019-05-29T12:40:03.985Z,21.50
2019-05-29T12:42:31.449Z,21.50
2019-05-29T12:44:59.571Z,21.10
2019-05-29T12:47:27.278Z,20.60
2019-05-29T12:49:55.509Z,19.80
2019-05-29T12:52:23.257Z,19.10
2019-05-29T12:54:50.865Z,18.70
2019-05-29T12:57:18.323Z,18.30
2019-05-29T12:59:45.829Z,17.90
2019-05-29T13:02:13.322Z,17.80
2019-05-29T13:05:06.003Z,17.50
2019-05-29T13:07:11.419Z,17.40
2019-05-29T13:09:38.903Z,17.40
2019-05-29T13:12:06.485Z,17.40
2019-05-29T13:14:34.002Z,17.30
2019-05-29T13:17:02.963Z,17.20
2019-05-29T13:19:30.856Z,17.20
2019-05-29T13:21:59.252Z,17.20
2019-05-29T13:24:26.852Z,17.30
2019-05-29T13:26:55.494Z,17.50
2019-05-29T13:29:23.155Z,17.80
2019-05-29T13:31:50.662Z,18.10
2019-05-29T13:34:18.265Z,18.50
2019-05-29T13:36:45.728Z,18.90
2019-05-29T13:39:13.365Z,19.40
2019-05-29T13:41:40.921Z,19.70
2019-05-29T13:44:08.381Z,20.10
2019-05-29T13:46:36.086Z,20.10
2019-05-29T13:49:05.043Z,20.30
2019-05-29T13:51:32.724Z,20.50
2019-05-29T13:54:09.989Z,20.70
2019-05-29T13:56:32.216Z,20.90
2019-05-29T13:58:59.919Z,21.00
2019-05-29T14:01:27.544Z,21.30
2019-05-29T14:03:55.151Z,21.60
2019-05-29T14:06:23.730Z,21.60
2019-05-29T14:09:15.588Z,21.60
2019-05-29T14:11:44.842Z,21.50
2019-05-29T14:14:13.728Z,21.60
2019-05-29T14:16:41.613Z,21.40
2019-05-29T14:19:09.271Z,21.30
2019-05-29T14:21:36.860Z,21.30
2019-05-29T14:24:23.527Z,21.40
2019-05-29T14:26:34.131Z,21.40
2019-05-29T14:29:01.737Z,20.90
2019-05-29T14:31:29.332Z,20.70
2019-05-29T14:33:57.020Z,20.30
2019-05-29T14:36:24.986Z,20.00
2019-05-29T14:38:52.576Z,19.50
2019-05-29T14:41:21.105Z,19.10
2019-05-29T14:43:48.889Z,18.70
2019-05-29T14:46:16.536Z,18.20
2019-05-29T14:48:44.196Z,17.80
2019-05-29T14:51:12.651Z,17.30
2019-05-29T14:53:40.340Z,16.80
2019-05-29T14:56:08.877Z,16.50
2019-05-29T14:58:36.470Z,16.30
2019-05-29T15:01:04.983Z,16.00
2019-05-29T15:03:32.762Z,15.90
2019-05-29T15:06:00.337Z,15.80
2019-05-29T15:08:28.081Z,15.70
2019-05-29T15:10:55.824Z,15.50
2019-05-29T15:13:23.791Z,15.60
2019-05-29T15:15:51.457Z,15.60
2019-05-29T15:18:19.335Z,15.60
2019-05-29T15:20:46.989Z,15.60
2019-05-29T15:23:15.650Z,15.50
2019-05-29T15:25:43.475Z,15.40
2019-05-29T15:28:12.572Z,15.30
2019-05-29T15:30:40.865Z,15.20
2019-05-29T15:33:08.651Z,15.10
2019-05-29T15:35:36.407Z,15.10
2019-05-29T15:38:04.028Z,15.00
2019-05-29T15:40:34.139Z,14.80
2019-05-29T15:43:01.854Z,14.70
2019-05-29T15:45:29.655Z,14.60
2019-05-29T15:47:57.222Z,14.50
2019-05-29T15:50:24.965Z,14.30
2019-05-29T15:52:52.645Z,14.30
2019-05-29T15:55:29.687Z,14.10
2019-05-29T15:57:49.689Z,14.10
2019-05-29T16:00:17.840Z,14.00
2019-05-29T16:02:48.707Z,13.90
2019-05-29T16:05:17.106Z,13.70
2019-05-29T16:07:45.039Z,13.70
2019-05-29T16:10:16.724Z,13.70
2019-05-29T16:12:43.124Z,13.70
2019-05-29T16:15:15.414Z,13.70
2019-05-29T16:17:44.306Z,13.60
2019-05-29T16:20:16.084Z,13.70
2019-05-29T16:22:44.343Z,13.70
2019-05-29T16:25:14.834Z,13.70
2019-05-29T16:27:42.564Z,13.70
2019-05-29T16:30:11.500Z,13.80
2019-05-29T16:32:39.384Z,13.80
2019-05-29T16:35:08.438Z,13.90
2019-05-29T16:37:36.259Z,14.00
2019-05-29T16:40:04.844Z,14.00
2019-05-29T16:42:32.561Z,14.00
2019-05-29T16:45:00.270Z,14.10
2019-05-29T16:47:28.007Z,14.10
2019-05-29T16:49:55.766Z,14.20
2019-05-29T16:52:23.474Z,14.30
2019-05-29T16:54:51.400Z,14.40
2019-05-29T16:57:19.337Z,14.60
2019-05-29T16:59:48.297Z,14.80
2019-05-29T17:02:16.012Z,14.90
2019-05-29T17:04:44.052Z,15.10
2019-05-29T17:07:11.804Z,15.20
2019-05-29T17:09:39.429Z,15.40
2019-05-29T17:12:09.469Z,15.50
2019-05-29T17:14:37.206Z,15.60
2019-05-29T17:17:05.028Z,15.80
2019-05-29T17:19:32.655Z,16.00
2019-05-29T17:22:00.519Z,16.10
2019-05-29T17:24:28.065Z,16.20
2019-05-29T17:26:55.956Z,16.40
2019-05-29T17:29:24.936Z,16.50
2019-05-29T17:31:52.720Z,16.60
2019-05-29T17:34:21.065Z,16.80
2019-05-29T17:36:48.912Z,16.90
2019-05-29T17:39:17.038Z,16.90
2019-05-29T17:41:44.876Z,16.90
2019-05-29T17:44:12.643Z,16.90
2019-05-29T17:46:40.331Z,16.80
2019-05-29T17:49:08.002Z,16.70
2019-05-29T17:51:36.758Z,16.50
2019-05-29T17:54:04.851Z,16.30
2019-05-29T17:56:36.764Z,16.20
2019-05-29T17:59:02.036Z,16.00
2019-05-29T18:01:30.820Z,15.90
2019-05-29T18:03:58.883Z,15.80
2019-05-29T18:06:26.822Z,15.80
2019-05-29T18:08:54.520Z,15.70
2019-05-29T18:11:23.249Z,15.60
2019-05-29T18:13:52.998Z,15.50
2019-05-29T18:16:21.567Z,15.40
2019-05-29T18:18:49.428Z,15.20
2019-05-29T18:21:17.477Z,15.10
2019-05-29T18:23:45.211Z,15.10
2019-05-29T18:26:12.935Z,15.00
2019-05-29T18:28:40.721Z,15.00
2019-05-29T18:31:08.594Z,15.00
2019-05-29T18:33:36.453Z,14.90
2019-05-29T18:36:04.205Z,14.90
2019-05-29T18:38:32.757Z,14.90
2019-05-29T18:41:00.684Z,14.80
2019-05-29T18:43:29.474Z,14.80
2019-05-29T18:45:57.126Z,14.70
2019-05-29T18:48:25.317Z,14.70
2019-05-29T18:50:54.186Z,14.60
2019-05-29T18:53:22.729Z,14.60
2019-05-29T18:55:50.579Z,14.50
2019-05-29T18:58:18.416Z,14.50
2019-05-29T19:00:46.333Z,14.30
2019-05-29T19:03:14.180Z,14.20
2019-05-29T19:05:42.646Z,14.10
2019-05-29T19:08:10.629Z,14.00
2019-05-29T19:10:38.461Z,13.90
2019-05-29T19:13:06.202Z,13.90
2019-05-29T19:15:33.929Z,13.80
2019-05-29T19:18:01.651Z,13.80
2019-05-29T19:20:30.487Z,13.70
2019-05-29T19:22:58.372Z,13.60
2019-05-29T19:25:26.821Z,13.60
2019-05-29T19:27:54.804Z,13.50
2019-05-29T19:30:22.966Z,13.40
2019-05-29T19:32:50.826Z,13.30
2019-05-29T19:35:18.912Z,13.20
2019-05-29T19:37:46.826Z,13.10
2019-05-29T19:40:15.091Z,13.10
2019-05-29T19:42:42.826Z,13.00
2019-05-29T19:45:11.188Z,13.00
2019-05-29T19:47:39.129Z,12.90
2019-05-29T19:50:10.864Z,12.80
2019-05-29T19:52:37.044Z,12.80
2019-05-29T19:55:05.013Z,12.70
2019-05-29T19:57:50.820Z,12.70
2019-05-29T20:00:02.933Z,12.70
2019-05-29T20:02:30.807Z,12.60
2019-05-29T20:04:58.598Z,12.50
2019-05-29T20:07:27.020Z,12.40
2019-05-29T20:09:55.012Z,12.40
2019-05-29T20:12:22.848Z,12.30
2019-05-29T20:14:50.584Z,12.20
2019-05-29T20:17:20.308Z,12.10
2019-05-29T20:19:48.099Z,12.00
2019-05-29T20:22:16.076Z,11.90
2019-05-29T20:24:43.823Z,11.80
2019-05-29T20:27:11.513Z,11.80
2019-05-29T20:29:39.263Z,11.70
2019-05-29T20:32:07.063Z,11.70
2019-05-29T20:34:35.157Z,11.60
2019-05-29T20:37:03.012Z,11.60
2019-05-29T20:39:32.820Z,11.50
2019-05-29T20:42:00.541Z,11.40
2019-05-29T20:44:28.251Z,11.30
2019-05-29T20:46:56.169Z,11.30
2019-05-29T20:49:24.194Z,11.20
2019-05-29T20:51:51.889Z,11.20
2019-05-29T20:54:19.874Z,11.10
2019-05-29T20:56:47.634Z,11.10
2019-05-29T20:59:15.286Z,11.10
2019-05-29T21:01:47.015Z,11.00
2019-05-29T21:04:15.549Z,11.00
2019-05-29T21:06:43.220Z,11.00
2019-05-29T21:09:10.930Z,10.90
2019-05-29T21:11:39.514Z,10.90
2019-05-29T21:14:07.393Z,10.90
2019-05-29T21:16:35.576Z,10.80
2019-05-29T21:19:03.549Z,10.80
2019-05-29T21:21:31.347Z,10.70
2019-05-29T21:23:59.036Z,10.70
2019-05-29T21:26:27.088Z,10.60
2019-05-29T21:28:55.342Z,10.50
2019-05-29T21:31:23.152Z,10.50
2019-05-29T21:33:50.974Z,10.40
2019-05-29T21:36:18.753Z,10.30
2019-05-29T21:38:46.550Z,10.30
2019-05-29T21:41:14.270Z,10.20
2019-05-29T21:43:42.724Z,10.10
2019-05-29T21:46:10.489Z,10.00
2019-05-29T21:48:38.997Z,10.00
2019-05-29T21:51:06.853Z,9.90
2019-05-29T21:53:34.570Z,9.80
2019-05-29T21:56:02.511Z,9.80
2019-05-29T21:58:30.245Z,9.80
2019-05-29T22:00:58.226Z,9.80
2019-05-29T22:03:27.277Z,9.70
2019-05-29T22:05:55.281Z,9.70
2019-05-29T22:08:23.206Z,9.70
2019-05-29T22:10:51.528Z,9.70
2019-05-29T22:13:19.299Z,9.60
2019-05-29T22:15:50.546Z,9.60
2019-05-29T22:18:18.658Z,9.60
2019-05-29T22:20:46.756Z,9.60
2019-05-29T22:23:14.737Z,9.60
2019-05-29T22:25:43.743Z,9.50
2019-05-29T22:28:11.625Z,9.60
2019-05-29T22:30:39.686Z,9.50
2019-05-29T22:33:07.828Z,9.50
2019-05-29T22:35:35.820Z,9.40
2019-05-29T22:38:05.133Z,9.40
2019-05-29T22:40:32.995Z,9.40
2019-05-29T22:43:01.827Z,9.30
2019-05-29T22:45:29.823Z,9.30
2019-05-29T22:47:57.776Z,9.30
2019-05-29T22:50:25.608Z,9.20
2019-05-29T22:52:53.778Z,9.20
2019-05-29T22:55:22.004Z,9.20
2019-05-29T22:57:49.841Z,9.20
2019-05-29T23:00:19.036Z,9.20
2019-05-29T23:02:46.900Z,9.20
2019-05-29T23:05:14.673Z,9.20
2019-05-29T23:07:42.723Z,9.10
2019-05-29T23:10:12.313Z,9.10
2019-05-29T23:12:40.269Z,9.10
2019-05-29T23:15:08.309Z,9.10
2019-05-29T23:17:36.042Z,9.10
2019-05-29T23:20:04.704Z,9.10
2019-05-29T23:22:32.843Z,9.00
2019-05-29T23:25:03.146Z,8.90
2019-05-29T23:27:31.161Z,9.00
2019-05-29T23:29:59.096Z,8.90
2019-05-29T23:32:26.833Z,8.90
2019-05-29T23:34:55.065Z,8.90
2019-05-29T23:37:23.071Z,8.80
2019-05-29T23:39:50.845Z,8.80
2019-05-29T23:42:18.577Z,8.80
2019-05-29T23:44:46.380Z,8.80
2019-05-29T23:47:14.132Z,8.80
2019-05-29T23:49:41.925Z,8.80
2019-05-29T23:52:09.736Z,8.70
2019-05-29T23:54:37.545Z,8.60
2019-05-29T23:57:05.330Z,8.60
2019-05-29T23:59:33.184Z,8.50
